sensor_id;sensor_type;location;lat;lon;timestamp;P1;durP1;ratioP1;P2;durP2;ratioP2
79074;SDS011;68476;42.710;23.388;2023-09-07T00:01:18;13.07;;;9.00;;
79074;SDS011;68476;42.710;23.388;2023-09-07T00:03:44;14.40;;;9.40;;
79074;SDS011;68476;42.710;23.388;2023-09-07T00:06:09;12.85;;;9.07;;
79074;SDS011;68476;42.710;23.388;2023-09-07T00:08:35;11.77;;;9.93;;
79074;SDS011;68476;42.710;23.388;2023-09-07T00:11:04;11.77;;;9.20;;
79074;SDS011;68476;42.710;23.388;2023-09-07T00:13:30;11.40;;;9.40;;
79074;SDS011;68476;42.710;23.388;2023-09-07T00:15:59;10.10;;;8.73;;
79074;SDS011;68476;42.710;23.388;2023-09-07T00:18:26;10.48;;;9.23;;
79074;SDS011;68476;42.710;23.388;2023-09-07T00:20:51;11.50;;;9.77;;
79074;SDS011;68476;42.710;23.388;2023-09-07T00:23:17;13.80;;;10.23;;
79074;SDS011;68476;42.710;23.388;2023-09-07T00:25:42;15.30;;;10.32;;
79074;SDS011;68476;42.710;23.388;2023-09-07T00:28:08;12.18;;;10.07;;
79074;SDS011;68476;42.710;23.388;2023-09-07T00:30:33;12.57;;;9.57;;
79074;SDS011;68476;42.710;23.388;2023-09-07T00:32:59;12.60;;;10.18;;
79074;SDS011;68476;42.710;23.388;2023-09-07T00:35:24;11.57;;;10.38;;
79074;SDS011;68476;42.710;23.388;2023-09-07T00:37:49;11.10;;;9.82;;
79074;SDS011;68476;42.710;23.388;2023-09-07T00:40:15;12.07;;;9.02;;
79074;SDS011;68476;42.710;23.388;2023-09-07T00:42:40;14.10;;;9.40;;
79074;SDS011;68476;42.710;23.388;2023-09-07T00:45:06;13.38;;;9.23;;
79074;SDS011;68476;42.710;23.388;2023-09-07T00:47:32;11.38;;;10.07;;
79074;SDS011;68476;42.710;23.388;2023-09-07T00:50:01;11.20;;;8.95;;
79074;SDS011;68476;42.710;23.388;2023-09-07T00:52:26;11.85;;;9.73;;
79074;SDS011;68476;42.710;23.388;2023-09-07T00:54:52;14.02;;;10.02;;
79074;SDS011;68476;42.710;23.388;2023-09-07T00:57:18;12.32;;;9.70;;
79074;SDS011;68476;42.710;23.388;2023-09-07T00:59:43;14.25;;;9.90;;
79074;SDS011;68476;42.710;23.388;2023-09-07T01:02:09;12.13;;;9.68;;
79074;SDS011;68476;42.710;23.388;2023-09-07T01:04:34;11.60;;;9.88;;
79074;SDS011;68476;42.710;23.388;2023-09-07T01:07:04;12.77;;;10.80;;
79074;SDS011;68476;42.710;23.388;2023-09-07T01:09:37;13.85;;;11.02;;
79074;SDS011;68476;42.710;23.388;2023-09-07T01:12:05;11.73;;;9.95;;
79074;SDS011;68476;42.710;23.388;2023-09-07T01:14:35;13.75;;;11.23;;
79074;SDS011;68476;42.710;23.388;2023-09-07T01:17:01;13.00;;;10.65;;
79074;SDS011;68476;42.710;23.388;2023-09-07T01:19:28;12.23;;;10.80;;
79074;SDS011;68476;42.710;23.388;2023-09-07T01:21:54;13.43;;;10.85;;
79074;SDS011;68476;42.710;23.388;2023-09-07T01:24:19;12.00;;;10.15;;
79074;SDS011;68476;42.710;23.388;2023-09-07T01:26:46;12.35;;;11.05;;
79074;SDS011;68476;42.710;23.388;2023-09-07T01:29:14;13.60;;;12.00;;
79074;SDS011;68476;42.710;23.388;2023-09-07T01:31:41;12.68;;;10.50;;
79074;SDS011;68476;42.710;23.388;2023-09-07T01:34:07;15.43;;;11.48;;
79074;SDS011;68476;42.710;23.388;2023-09-07T01:36:33;11.45;;;10.32;;
79074;SDS011;68476;42.710;23.388;2023-09-07T01:38:59;12.77;;;11.55;;
79074;SDS011;68476;42.710;23.388;2023-09-07T01:41:25;15.90;;;10.98;;
79074;SDS011;68476;42.710;23.388;2023-09-07T01:43:51;12.82;;;11.05;;
79074;SDS011;68476;42.710;23.388;2023-09-07T01:46:17;12.77;;;11.40;;
79074;SDS011;68476;42.710;23.388;2023-09-07T01:48:42;13.85;;;12.13;;
79074;SDS011;68476;42.710;23.388;2023-09-07T01:51:08;14.10;;;11.23;;
79074;SDS011;68476;42.710;23.388;2023-09-07T01:53:33;15.00;;;11.23;;
79074;SDS011;68476;42.710;23.388;2023-09-07T01:55:59;13.45;;;12.00;;
79074;SDS011;68476;42.710;23.388;2023-09-07T01:58:25;13.85;;;11.43;;
79074;SDS011;68476;42.710;23.388;2023-09-07T02:00:52;13.02;;;11.02;;
79074;SDS011;68476;42.710;23.388;2023-09-07T02:03:21;13.50;;;11.30;;
79074;SDS011;68476;42.710;23.388;2023-09-07T02:05:47;13.93;;;12.07;;
79074;SDS011;68476;42.710;23.388;2023-09-07T02:08:12;12.98;;;11.40;;
79074;SDS011;68476;42.710;23.388;2023-09-07T02:10:38;13.80;;;12.18;;
79074;SDS011;68476;42.710;23.388;2023-09-07T02:13:03;13.90;;;11.73;;
79074;SDS011;68476;42.710;23.388;2023-09-07T02:15:29;12.90;;;11.57;;
79074;SDS011;68476;42.710;23.388;2023-09-07T02:17:54;12.82;;;11.50;;
79074;SDS011;68476;42.710;23.388;2023-09-07T02:20:19;15.98;;;12.75;;
79074;SDS011;68476;42.710;23.388;2023-09-07T02:22:45;14.45;;;12.00;;
79074;SDS011;68476;42.710;23.388;2023-09-07T02:25:10;13.43;;;12.02;;
79074;SDS011;68476;42.710;23.388;2023-09-07T02:27:36;14.55;;;11.90;;
79074;SDS011;68476;42.710;23.388;2023-09-07T02:30:02;13.38;;;11.98;;
79074;SDS011;68476;42.710;23.388;2023-09-07T02:32:28;14.88;;;12.02;;
79074;SDS011;68476;42.710;23.388;2023-09-07T02:34:54;14.60;;;12.43;;
79074;SDS011;68476;42.710;23.388;2023-09-07T02:37:19;14.43;;;11.75;;
79074;SDS011;68476;42.710;23.388;2023-09-07T02:39:45;13.10;;;11.40;;
79074;SDS011;68476;42.710;23.388;2023-09-07T02:42:10;16.13;;;11.98;;
79074;SDS011;68476;42.710;23.388;2023-09-07T02:44:35;13.05;;;11.70;;
79074;SDS011;68476;42.710;23.388;2023-09-07T02:47:01;15.32;;;12.18;;
79074;SDS011;68476;42.710;23.388;2023-09-07T02:49:26;14.73;;;12.18;;
79074;SDS011;68476;42.710;23.388;2023-09-07T02:51:52;14.73;;;12.63;;
79074;SDS011;68476;42.710;23.388;2023-09-07T02:54:17;16.75;;;12.38;;
79074;SDS011;68476;42.710;23.388;2023-09-07T02:56:43;14.18;;;11.93;;
79074;SDS011;68476;42.710;23.388;2023-09-07T02:59:08;14.25;;;11.75;;
79074;SDS011;68476;42.710;23.388;2023-09-07T03:01:34;14.52;;;12.90;;
79074;SDS011;68476;42.710;23.388;2023-09-07T03:03:59;13.82;;;11.90;;
79074;SDS011;68476;42.710;23.388;2023-09-07T03:06:25;14.27;;;12.38;;
79074;SDS011;68476;42.710;23.388;2023-09-07T03:08:50;13.90;;;11.82;;
79074;SDS011;68476;42.710;23.388;2023-09-07T03:11:17;13.50;;;12.05;;
79074;SDS011;68476;42.710;23.388;2023-09-07T03:13:42;15.45;;;12.50;;
79074;SDS011;68476;42.710;23.388;2023-09-07T03:16:08;13.85;;;12.45;;
79074;SDS011;68476;42.710;23.388;2023-09-07T03:18:33;14.55;;;13.07;;
79074;SDS011;68476;42.710;23.388;2023-09-07T03:21:00;16.33;;;13.60;;
79074;SDS011;68476;42.710;23.388;2023-09-07T03:26:30;17.63;;;14.13;;
79074;SDS011;68476;42.710;23.388;2023-09-07T03:28:56;19.52;;;15.45;;
79074;SDS011;68476;42.710;23.388;2023-09-07T03:31:22;18.75;;;14.48;;
79074;SDS011;68476;42.710;23.388;2023-09-07T03:33:48;18.52;;;14.82;;
79074;SDS011;68476;42.710;23.388;2023-09-07T03:36:14;17.27;;;14.75;;
79074;SDS011;68476;42.710;23.388;2023-09-07T03:38:40;17.52;;;15.10;;
79074;SDS011;68476;42.710;23.388;2023-09-07T03:41:06;16.05;;;14.38;;
79074;SDS011;68476;42.710;23.388;2023-09-07T03:43:32;18.60;;;15.13;;
79074;SDS011;68476;42.710;23.388;2023-09-07T03:46:00;17.13;;;15.15;;
79074;SDS011;68476;42.710;23.388;2023-09-07T03:48:25;16.25;;;14.55;;
79074;SDS011;68476;42.710;23.388;2023-09-07T03:50:50;18.83;;;14.93;;
79074;SDS011;68476;42.710;23.388;2023-09-07T03:53:16;18.63;;;15.18;;
79074;SDS011;68476;42.710;23.388;2023-09-07T03:55:42;16.70;;;14.57;;
79074;SDS011;68476;42.710;23.388;2023-09-07T03:58:09;18.88;;;14.38;;
79074;SDS011;68476;42.710;23.388;2023-09-07T04:00:38;16.73;;;13.60;;
79074;SDS011;68476;42.710;23.388;2023-09-07T04:03:05;16.95;;;14.48;;
79074;SDS011;68476;42.710;23.388;2023-09-07T04:05:30;17.63;;;14.50;;
79074;SDS011;68476;42.710;23.388;2023-09-07T04:07:56;16.65;;;13.88;;
79074;SDS011;68476;42.710;23.388;2023-09-07T04:10:22;15.80;;;14.07;;
79074;SDS011;68476;42.710;23.388;2023-09-07T04:12:47;17.90;;;14.23;;
79074;SDS011;68476;42.710;23.388;2023-09-07T04:15:13;16.42;;;14.43;;
79074;SDS011;68476;42.710;23.388;2023-09-07T04:17:38;17.52;;;13.95;;
79074;SDS011;68476;42.710;23.388;2023-09-07T04:20:06;16.65;;;13.93;;
79074;SDS011;68476;42.710;23.388;2023-09-07T04:22:33;17.98;;;14.02;;
79074;SDS011;68476;42.710;23.388;2023-09-07T04:24:58;18.13;;;13.60;;
79074;SDS011;68476;42.710;23.388;2023-09-07T04:27:23;17.10;;;14.02;;
79074;SDS011;68476;42.710;23.388;2023-09-07T04:29:49;16.15;;;13.27;;
79074;SDS011;68476;42.710;23.388;2023-09-07T04:32:15;16.67;;;13.75;;
79074;SDS011;68476;42.710;23.388;2023-09-07T04:34:40;18.98;;;14.07;;
79074;SDS011;68476;42.710;23.388;2023-09-07T04:37:05;18.65;;;14.38;;
79074;SDS011;68476;42.710;23.388;2023-09-07T04:39:31;17.77;;;15.30;;
79074;SDS011;68476;42.710;23.388;2023-09-07T04:41:56;19.35;;;14.35;;
79074;SDS011;68476;42.710;23.388;2023-09-07T04:44:22;18.70;;;14.75;;
79074;SDS011;68476;42.710;23.388;2023-09-07T04:46:47;16.55;;;14.18;;
79074;SDS011;68476;42.710;23.388;2023-09-07T04:49:12;17.13;;;13.90;;
79074;SDS011;68476;42.710;23.388;2023-09-07T04:51:38;16.10;;;13.52;;
79074;SDS011;68476;42.710;23.388;2023-09-07T04:54:04;17.80;;;14.90;;
79074;SDS011;68476;42.710;23.388;2023-09-07T04:56:29;17.38;;;14.75;;
79074;SDS011;68476;42.710;23.388;2023-09-07T04:59:05;19.13;;;15.32;;
79074;SDS011;68476;42.710;23.388;2023-09-07T05:04:51;21.48;;;15.18;;
79074;SDS011;68476;42.710;23.388;2023-09-07T05:07:17;20.10;;;15.63;;
79074;SDS011;68476;42.710;23.388;2023-09-07T05:09:42;18.70;;;14.88;;
79074;SDS011;68476;42.710;23.388;2023-09-07T05:12:08;16.65;;;13.90;;
79074;SDS011;68476;42.710;23.388;2023-09-07T05:14:33;21.10;;;15.43;;
79074;SDS011;68476;42.710;23.388;2023-09-07T05:16:59;19.15;;;14.57;;
79074;SDS011;68476;42.710;23.388;2023-09-07T05:19:24;19.40;;;14.75;;
79074;SDS011;68476;42.710;23.388;2023-09-07T05:21:49;18.17;;;14.80;;
79074;SDS011;68476;42.710;23.388;2023-09-07T05:24:15;18.40;;;14.27;;
79074;SDS011;68476;42.710;23.388;2023-09-07T05:26:41;21.38;;;14.23;;
79074;SDS011;68476;42.710;23.388;2023-09-07T05:29:07;19.95;;;14.50;;
79074;SDS011;68476;42.710;23.388;2023-09-07T05:31:32;17.35;;;14.55;;
79074;SDS011;68476;42.710;23.388;2023-09-07T05:33:57;17.13;;;14.30;;
79074;SDS011;68476;42.710;23.388;2023-09-07T05:36:23;17.23;;;13.80;;
79074;SDS011;68476;42.710;23.388;2023-09-07T05:38:48;18.05;;;14.27;;
79074;SDS011;68476;42.710;23.388;2023-09-07T05:41:14;18.15;;;13.95;;
79074;SDS011;68476;42.710;23.388;2023-09-07T05:43:39;19.73;;;15.38;;
79074;SDS011;68476;42.710;23.388;2023-09-07T05:46:04;16.45;;;13.98;;
79074;SDS011;68476;42.710;23.388;2023-09-07T05:48:30;17.13;;;13.82;;
79074;SDS011;68476;42.710;23.388;2023-09-07T05:50:55;17.77;;;15.18;;
79074;SDS011;68476;42.710;23.388;2023-09-07T05:53:21;16.65;;;12.93;;
79074;SDS011;68476;42.710;23.388;2023-09-07T05:55:47;18.52;;;13.30;;
79074;SDS011;68476;42.710;23.388;2023-09-07T05:58:12;17.20;;;13.43;;
79074;SDS011;68476;42.710;23.388;2023-09-07T06:00:38;16.33;;;13.30;;
79074;SDS011;68476;42.710;23.388;2023-09-07T06:03:04;17.02;;;13.25;;
79074;SDS011;68476;42.710;23.388;2023-09-07T06:05:31;17.27;;;13.30;;
79074;SDS011;68476;42.710;23.388;2023-09-07T06:07:56;15.73;;;12.95;;
79074;SDS011;68476;42.710;23.388;2023-09-07T06:10:22;16.45;;;13.30;;
79074;SDS011;68476;42.710;23.388;2023-09-07T06:12:47;17.20;;;12.70;;
79074;SDS011;68476;42.710;23.388;2023-09-07T06:15:13;15.32;;;12.27;;
79074;SDS011;68476;42.710;23.388;2023-09-07T06:17:38;15.45;;;11.50;;
79074;SDS011;68476;42.710;23.388;2023-09-07T06:20:04;12.55;;;10.73;;
79074;SDS011;68476;42.710;23.388;2023-09-07T06:22:30;12.18;;;10.40;;
79074;SDS011;68476;42.710;23.388;2023-09-07T06:24:56;11.45;;;9.88;;
79074;SDS011;68476;42.710;23.388;2023-09-07T06:27:21;12.32;;;9.18;;
79074;SDS011;68476;42.710;23.388;2023-09-07T06:29:47;10.05;;;8.45;;
79074;SDS011;68476;42.710;23.388;2023-09-07T06:32:12;10.07;;;8.20;;
79074;SDS011;68476;42.710;23.388;2023-09-07T06:34:38;10.13;;;8.88;;
79074;SDS011;68476;42.710;23.388;2023-09-07T06:37:04;11.18;;;8.93;;
79074;SDS011;68476;42.710;23.388;2023-09-07T06:39:30;10.90;;;8.73;;
79074;SDS011;68476;42.710;23.388;2023-09-07T06:41:55;12.32;;;9.02;;
79074;SDS011;68476;42.710;23.388;2023-09-07T06:44:21;10.32;;;8.63;;
79074;SDS011;68476;42.710;23.388;2023-09-07T06:46:46;10.13;;;8.38;;
79074;SDS011;68476;42.710;23.388;2023-09-07T06:49:12;10.23;;;8.18;;
79074;SDS011;68476;42.710;23.388;2023-09-07T06:51:37;11.25;;;9.30;;
79074;SDS011;68476;42.710;23.388;2023-09-07T06:54:03;9.23;;;8.20;;
79074;SDS011;68476;42.710;23.388;2023-09-07T06:56:28;9.68;;;7.45;;
79074;SDS011;68476;42.710;23.388;2023-09-07T06:58:56;10.85;;;7.45;;
79074;SDS011;68476;42.710;23.388;2023-09-07T07:01:21;8.55;;;7.65;;
79074;SDS011;68476;42.710;23.388;2023-09-07T07:03:47;11.73;;;7.88;;
79074;SDS011;68476;42.710;23.388;2023-09-07T07:06:12;10.45;;;7.82;;
79074;SDS011;68476;42.710;23.388;2023-09-07T07:08:37;10.43;;;7.82;;
79074;SDS011;68476;42.710;23.388;2023-09-07T07:11:03;9.75;;;7.88;;
79074;SDS011;68476;42.710;23.388;2023-09-07T07:13:28;12.80;;;8.95;;
79074;SDS011;68476;42.710;23.388;2023-09-07T07:15:54;11.10;;;7.47;;
79074;SDS011;68476;42.710;23.388;2023-09-07T07:18:19;15.95;;;8.70;;
79074;SDS011;68476;42.710;23.388;2023-09-07T07:20:45;8.68;;;6.93;;
79074;SDS011;68476;42.710;23.388;2023-09-07T07:23:10;10.43;;;7.90;;
79074;SDS011;68476;42.710;23.388;2023-09-07T07:25:37;11.95;;;8.10;;
79074;SDS011;68476;42.710;23.388;2023-09-07T07:28:04;9.70;;;7.95;;
79074;SDS011;68476;42.710;23.388;2023-09-07T07:30:33;10.20;;;7.97;;
79074;SDS011;68476;42.710;23.388;2023-09-07T07:33:03;9.98;;;8.00;;
79074;SDS011;68476;42.710;23.388;2023-09-07T07:35:32;9.13;;;7.35;;
79074;SDS011;68476;42.710;23.388;2023-09-07T07:37:59;10.23;;;8.00;;
79074;SDS011;68476;42.710;23.388;2023-09-07T07:40:25;9.98;;;8.23;;
79074;SDS011;68476;42.710;23.388;2023-09-07T07:42:51;12.10;;;8.25;;
79074;SDS011;68476;42.710;23.388;2023-09-07T07:45:18;10.05;;;7.72;;
79074;SDS011;68476;42.710;23.388;2023-09-07T07:47:47;8.70;;;7.40;;
79074;SDS011;68476;42.710;23.388;2023-09-07T07:50:14;9.35;;;7.35;;
79074;SDS011;68476;42.710;23.388;2023-09-07T07:52:39;11.15;;;7.32;;
79074;SDS011;68476;42.710;23.388;2023-09-07T07:55:05;10.48;;;7.28;;
79074;SDS011;68476;42.710;23.388;2023-09-07T07:57:31;8.45;;;7.20;;
79074;SDS011;68476;42.710;23.388;2023-09-07T07:59:57;8.48;;;6.60;;
79074;SDS011;68476;42.710;23.388;2023-09-07T08:02:22;9.55;;;6.80;;
79074;SDS011;68476;42.710;23.388;2023-09-07T08:04:48;7.28;;;6.50;;
79074;SDS011;68476;42.710;23.388;2023-09-07T08:07:13;8.02;;;6.38;;
79074;SDS011;68476;42.710;23.388;2023-09-07T08:09:38;6.45;;;5.80;;
79074;SDS011;68476;42.710;23.388;2023-09-07T08:12:04;6.97;;;6.18;;
79074;SDS011;68476;42.710;23.388;2023-09-07T08:14:30;6.80;;;5.50;;
79074;SDS011;68476;42.710;23.388;2023-09-07T08:16:57;6.65;;;5.95;;
79074;SDS011;68476;42.710;23.388;2023-09-07T08:19:23;7.75;;;5.35;;
79074;SDS011;68476;42.710;23.388;2023-09-07T08:21:48;6.28;;;5.30;;
79074;SDS011;68476;42.710;23.388;2023-09-07T08:24:14;8.02;;;5.10;;
79074;SDS011;68476;42.710;23.388;2023-09-07T08:26:39;9.30;;;5.72;;
79074;SDS011;68476;42.710;23.388;2023-09-07T08:29:05;7.07;;;5.82;;
79074;SDS011;68476;42.710;23.388;2023-09-07T08:31:40;7.13;;;5.38;;
79074;SDS011;68476;42.710;23.388;2023-09-07T08:34:06;6.05;;;5.45;;
79074;SDS011;68476;42.710;23.388;2023-09-07T08:36:36;6.95;;;5.45;;
79074;SDS011;68476;42.710;23.388;2023-09-07T08:39:02;6.78;;;5.40;;
79074;SDS011;68476;42.710;23.388;2023-09-07T08:41:36;6.00;;;5.40;;
79074;SDS011;68476;42.710;23.388;2023-09-07T08:44:06;6.60;;;5.53;;
79074;SDS011;68476;42.710;23.388;2023-09-07T08:46:33;9.25;;;5.53;;
79074;SDS011;68476;42.710;23.388;2023-09-07T08:49:00;6.07;;;5.40;;
79074;SDS011;68476;42.710;23.388;2023-09-07T08:51:27;6.57;;;5.70;;
79074;SDS011;68476;42.710;23.388;2023-09-07T08:53:53;6.38;;;5.30;;
79074;SDS011;68476;42.710;23.388;2023-09-07T08:56:20;8.80;;;5.82;;
79074;SDS011;68476;42.710;23.388;2023-09-07T08:58:46;8.95;;;5.60;;
79074;SDS011;68476;42.710;23.388;2023-09-07T09:01:14;8.48;;;5.25;;
79074;SDS011;68476;42.710;23.388;2023-09-07T09:03:40;7.88;;;5.20;;
79074;SDS011;68476;42.710;23.388;2023-09-07T09:06:07;6.35;;;5.07;;
79074;SDS011;68476;42.710;23.388;2023-09-07T09:08:43;6.75;;;5.35;;
79074;SDS011;68476;42.710;23.388;2023-09-07T09:11:15;7.90;;;5.60;;
79074;SDS011;68476;42.710;23.388;2023-09-07T09:13:42;11.85;;;5.32;;
79074;SDS011;68476;42.710;23.388;2023-09-07T09:16:08;5.32;;;4.82;;
79074;SDS011;68476;42.710;23.388;2023-09-07T09:18:34;5.78;;;5.18;;
79074;SDS011;68476;42.710;23.388;2023-09-07T09:21:00;7.50;;;4.85;;
79074;SDS011;68476;42.710;23.388;2023-09-07T09:25:57;6.30;;;4.90;;
79074;SDS011;68476;42.710;23.388;2023-09-07T09:28:22;7.45;;;5.10;;
79074;SDS011;68476;42.710;23.388;2023-09-07T09:30:48;6.05;;;4.82;;
79074;SDS011;68476;42.710;23.388;2023-09-07T09:33:14;5.88;;;4.95;;
79074;SDS011;68476;42.710;23.388;2023-09-07T09:35:39;6.55;;;4.88;;
79074;SDS011;68476;42.710;23.388;2023-09-07T09:38:07;6.65;;;5.10;;
79074;SDS011;68476;42.710;23.388;2023-09-07T09:40:33;7.20;;;5.30;;
79074;SDS011;68476;42.710;23.388;2023-09-07T09:43:03;7.32;;;5.18;;
79074;SDS011;68476;42.710;23.388;2023-09-07T09:45:29;6.28;;;5.00;;
79074;SDS011;68476;42.710;23.388;2023-09-07T09:47:54;6.50;;;5.30;;
79074;SDS011;68476;42.710;23.388;2023-09-07T09:50:26;10.15;;;5.20;;
79074;SDS011;68476;42.710;23.388;2023-09-07T09:52:53;9.02;;;5.53;;
79074;SDS011;68476;42.710;23.388;2023-09-07T09:55:18;7.55;;;5.63;;
79074;SDS011;68476;42.710;23.388;2023-09-07T09:57:44;5.90;;;4.85;;
79074;SDS011;68476;42.710;23.388;2023-09-07T10:00:10;5.93;;;4.93;;
79074;SDS011;68476;42.710;23.388;2023-09-07T10:02:50;6.05;;;5.13;;
79074;SDS011;68476;42.710;23.388;2023-09-07T10:05:20;6.55;;;5.10;;
79074;SDS011;68476;42.710;23.388;2023-09-07T10:07:48;5.78;;;5.18;;
79074;SDS011;68476;42.710;23.388;2023-09-07T10:10:15;8.20;;;5.38;;
79074;SDS011;68476;42.710;23.388;2023-09-07T10:12:43;9.68;;;5.38;;
79074;SDS011;68476;42.710;23.388;2023-09-07T10:15:23;7.82;;;5.30;;
79074;SDS011;68476;42.710;23.388;2023-09-07T10:18:14;8.93;;;5.05;;
79074;SDS011;68476;42.710;23.388;2023-09-07T10:23:21;6.13;;;5.03;;
79074;SDS011;68476;42.710;23.388;2023-09-07T10:25:49;7.30;;;4.97;;
79074;SDS011;68476;42.710;23.388;2023-09-07T10:28:22;7.00;;;5.18;;
79074;SDS011;68476;42.710;23.388;2023-09-07T10:30:57;6.78;;;5.40;;
79074;SDS011;68476;42.710;23.388;2023-09-07T10:33:23;7.70;;;5.43;;
79074;SDS011;68476;42.710;23.388;2023-09-07T10:35:48;7.15;;;5.13;;
79074;SDS011;68476;42.710;23.388;2023-09-07T10:38:14;7.60;;;4.93;;
79074;SDS011;68476;42.710;23.388;2023-09-07T10:40:40;6.60;;;4.97;;
79074;SDS011;68476;42.710;23.388;2023-09-07T10:43:08;6.68;;;5.10;;
79074;SDS011;68476;42.710;23.388;2023-09-07T10:45:34;7.22;;;5.53;;
79074;SDS011;68476;42.710;23.388;2023-09-07T10:47:59;8.15;;;5.50;;
79074;SDS011;68476;42.710;23.388;2023-09-07T10:50:25;8.05;;;4.60;;
79074;SDS011;68476;42.710;23.388;2023-09-07T10:52:50;8.48;;;4.90;;
79074;SDS011;68476;42.710;23.388;2023-09-07T10:55:15;6.93;;;4.60;;
79074;SDS011;68476;42.710;23.388;2023-09-07T10:57:41;7.18;;;4.63;;
79074;SDS011;68476;42.710;23.388;2023-09-07T11:00:11;6.32;;;4.70;;
79074;SDS011;68476;42.710;23.388;2023-09-07T11:02:37;6.88;;;4.25;;
79074;SDS011;68476;42.710;23.388;2023-09-07T11:05:03;5.15;;;4.38;;
79074;SDS011;68476;42.710;23.388;2023-09-07T11:07:29;7.68;;;4.90;;
79074;SDS011;68476;42.710;23.388;2023-09-07T11:09:56;6.45;;;4.80;;
79074;SDS011;68476;42.710;23.388;2023-09-07T11:12:21;5.95;;;4.50;;
79074;SDS011;68476;42.710;23.388;2023-09-07T11:14:47;8.55;;;4.85;;
79074;SDS011;68476;42.710;23.388;2023-09-07T11:17:16;6.22;;;4.43;;
79074;SDS011;68476;42.710;23.388;2023-09-07T11:19:41;8.10;;;4.20;;
79074;SDS011;68476;42.710;23.388;2023-09-07T11:22:10;10.57;;;4.88;;
79074;SDS011;68476;42.710;23.388;2023-09-07T11:24:36;8.02;;;4.63;;
79074;SDS011;68476;42.710;23.388;2023-09-07T11:27:01;8.10;;;4.40;;
79074;SDS011;68476;42.710;23.388;2023-09-07T11:29:33;8.70;;;4.47;;
79074;SDS011;68476;42.710;23.388;2023-09-07T11:32:08;5.63;;;4.10;;
79074;SDS011;68476;42.710;23.388;2023-09-07T11:34:34;7.88;;;4.88;;
79074;SDS011;68476;42.710;23.388;2023-09-07T11:37:02;6.30;;;4.40;;
79074;SDS011;68476;42.710;23.388;2023-09-07T11:39:28;6.32;;;4.13;;
79074;SDS011;68476;42.710;23.388;2023-09-07T11:41:54;6.35;;;4.25;;
79074;SDS011;68476;42.710;23.388;2023-09-07T11:44:19;6.03;;;4.32;;
79074;SDS011;68476;42.710;23.388;2023-09-07T11:46:45;6.05;;;4.30;;
79074;SDS011;68476;42.710;23.388;2023-09-07T11:49:11;5.25;;;4.40;;
79074;SDS011;68476;42.710;23.388;2023-09-07T11:51:37;6.07;;;4.32;;
79074;SDS011;68476;42.710;23.388;2023-09-07T11:54:03;5.63;;;4.35;;
79074;SDS011;68476;42.710;23.388;2023-09-07T11:56:29;6.95;;;4.25;;
79074;SDS011;68476;42.710;23.388;2023-09-07T11:58:55;4.85;;;4.07;;
79074;SDS011;68476;42.710;23.388;2023-09-07T12:01:21;6.68;;;4.20;;
79074;SDS011;68476;42.710;23.388;2023-09-07T12:03:46;4.97;;;4.18;;
79074;SDS011;68476;42.710;23.388;2023-09-07T12:06:12;4.85;;;3.90;;
79074;SDS011;68476;42.710;23.388;2023-09-07T12:08:41;5.18;;;4.18;;
79074;SDS011;68476;42.710;23.388;2023-09-07T12:11:10;6.63;;;4.60;;
79074;SDS011;68476;42.710;23.388;2023-09-07T12:13:35;4.95;;;4.10;;
79074;SDS011;68476;42.710;23.388;2023-09-07T12:16:01;7.70;;;4.32;;
79074;SDS011;68476;42.710;23.388;2023-09-07T12:18:27;5.30;;;3.80;;
79074;SDS011;68476;42.710;23.388;2023-09-07T12:20:52;7.53;;;4.10;;
79074;SDS011;68476;42.710;23.388;2023-09-07T12:23:18;5.28;;;3.78;;
79074;SDS011;68476;42.710;23.388;2023-09-07T12:25:43;4.65;;;4.00;;
79074;SDS011;68476;42.710;23.388;2023-09-07T12:28:09;5.15;;;3.75;;
79074;SDS011;68476;42.710;23.388;2023-09-07T12:30:34;6.85;;;3.92;;
79074;SDS011;68476;42.710;23.388;2023-09-07T12:32:59;6.75;;;4.05;;
79074;SDS011;68476;42.710;23.388;2023-09-07T12:35:25;5.63;;;3.72;;
79074;SDS011;68476;42.710;23.388;2023-09-07T12:38:06;6.32;;;4.15;;
79074;SDS011;68476;42.710;23.388;2023-09-07T12:41:10;5.32;;;4.00;;
79074;SDS011;68476;42.710;23.388;2023-09-07T12:43:36;6.03;;;3.90;;
79074;SDS011;68476;42.710;23.388;2023-09-07T12:46:01;5.85;;;3.97;;
79074;SDS011;68476;42.710;23.388;2023-09-07T12:48:27;8.25;;;3.78;;
79074;SDS011;68476;42.710;23.388;2023-09-07T12:50:53;5.88;;;3.97;;
79074;SDS011;68476;42.710;23.388;2023-09-07T12:53:19;4.75;;;4.13;;
79074;SDS011;68476;42.710;23.388;2023-09-07T12:55:44;6.50;;;4.00;;
79074;SDS011;68476;42.710;23.388;2023-09-07T12:58:10;4.70;;;4.13;;
79074;SDS011;68476;42.710;23.388;2023-09-07T13:00:36;6.18;;;3.95;;
79074;SDS011;68476;42.710;23.388;2023-09-07T13:03:01;7.40;;;4.10;;
79074;SDS011;68476;42.710;23.388;2023-09-07T13:05:27;5.57;;;4.20;;
79074;SDS011;68476;42.710;23.388;2023-09-07T13:08:02;5.47;;;4.22;;
79074;SDS011;68476;42.710;23.388;2023-09-07T13:10:31;6.40;;;4.10;;
79074;SDS011;68476;42.710;23.388;2023-09-07T13:12:57;6.70;;;4.18;;
79074;SDS011;68476;42.710;23.388;2023-09-07T13:15:23;5.32;;;4.00;;
79074;SDS011;68476;42.710;23.388;2023-09-07T13:17:48;8.50;;;4.55;;
79074;SDS011;68476;42.710;23.388;2023-09-07T13:20:13;5.05;;;4.15;;
79074;SDS011;68476;42.710;23.388;2023-09-07T13:22:39;6.88;;;4.70;;
79074;SDS011;68476;42.710;23.388;2023-09-07T13:25:04;5.40;;;4.32;;
79074;SDS011;68476;42.710;23.388;2023-09-07T13:27:30;7.10;;;4.57;;
79074;SDS011;68476;42.710;23.388;2023-09-07T13:29:56;5.55;;;4.20;;
79074;SDS011;68476;42.710;23.388;2023-09-07T13:32:22;4.63;;;3.88;;
79074;SDS011;68476;42.710;23.388;2023-09-07T13:34:50;4.85;;;4.35;;
79074;SDS011;68476;42.710;23.388;2023-09-07T13:37:16;7.05;;;4.53;;
79074;SDS011;68476;42.710;23.388;2023-09-07T13:39:41;5.25;;;4.20;;
79074;SDS011;68476;42.710;23.388;2023-09-07T13:42:07;5.35;;;4.43;;
79074;SDS011;68476;42.710;23.388;2023-09-07T13:44:33;6.90;;;4.13;;
79074;SDS011;68476;42.710;23.388;2023-09-07T13:46:58;6.32;;;4.53;;
79074;SDS011;68476;42.710;23.388;2023-09-07T13:49:24;7.05;;;4.40;;
79074;SDS011;68476;42.710;23.388;2023-09-07T13:51:50;5.72;;;4.43;;
79074;SDS011;68476;42.710;23.388;2023-09-07T13:54:15;6.88;;;4.50;;
79074;SDS011;68476;42.710;23.388;2023-09-07T13:56:41;7.20;;;4.82;;
79074;SDS011;68476;42.710;23.388;2023-09-07T14:01:35;6.03;;;4.93;;
79074;SDS011;68476;42.710;23.388;2023-09-07T14:04:00;5.68;;;4.10;;
79074;SDS011;68476;42.710;23.388;2023-09-07T14:06:25;5.82;;;4.50;;
79074;SDS011;68476;42.710;23.388;2023-09-07T14:08:51;6.78;;;4.72;;
79074;SDS011;68476;42.710;23.388;2023-09-07T14:11:16;7.75;;;4.20;;
79074;SDS011;68476;42.710;23.388;2023-09-07T14:13:42;5.65;;;4.93;;
79074;SDS011;68476;42.710;23.388;2023-09-07T14:16:07;5.10;;;4.60;;
79074;SDS011;68476;42.710;23.388;2023-09-07T14:18:35;7.07;;;4.30;;
79074;SDS011;68476;42.710;23.388;2023-09-07T14:21:01;6.80;;;4.40;;
79074;SDS011;68476;42.710;23.388;2023-09-07T14:23:27;7.45;;;4.28;;
79074;SDS011;68476;42.710;23.388;2023-09-07T14:25:53;6.30;;;4.60;;
79074;SDS011;68476;42.710;23.388;2023-09-07T14:28:19;4.70;;;4.10;;
79074;SDS011;68476;42.710;23.388;2023-09-07T14:30:45;5.32;;;4.15;;
79074;SDS011;68476;42.710;23.388;2023-09-07T14:33:11;6.10;;;4.38;;